createdAt,value
2019-01-15T00:00:45.496Z,18.80
2019-01-15T00:03:14.603Z,17.87
2019-01-15T00:05:43.695Z,17.17
2019-01-15T00:08:13.820Z,16.50
2019-01-15T00:10:42.980Z,16.97
2019-01-15T00:13:12.099Z,14.80
2019-01-15T00:15:41.192Z,20.23
2019-01-15T00:18:10.311Z,10.93
2019-01-15T00:20:39.406Z,13.83
2019-01-15T00:23:08.514Z,17.23
2019-01-15T00:25:37.617Z,13.77
2019-01-15T00:28:06.716Z,13.17
2019-01-15T00:30:35.819Z,17.03
2019-01-15T00:33:04.922Z,23.10
2019-01-15T00:35:35.091Z,9.47
2019-01-15T00:38:04.195Z,16.33
2019-01-15T00:40:33.291Z,19.90
2019-01-15T00:43:02.400Z,13.27
2019-01-15T00:45:31.495Z,15.00
2019-01-15T00:48:00.614Z,14.03
2019-01-15T00:50:29.721Z,13.57
2019-01-15T00:52:58.835Z,11.90
2019-01-15T00:55:27.926Z,11.27
2019-01-15T00:57:57.033Z,14.37
2019-01-15T01:00:26.136Z,15.03
2019-01-15T01:02:55.250Z,18.33
2019-01-15T01:05:24.353Z,12.50
2019-01-15T01:07:53.462Z,12.33
2019-01-15T01:10:22.570Z,14.20
2019-01-15T01:12:51.685Z,15.30
2019-01-15T01:15:20.785Z,20.80
2019-01-15T01:17:49.893Z,15.97
2019-01-15T01:20:21.700Z,13.63
2019-01-15T01:22:50.824Z,10.20
2019-01-15T01:25:19.925Z,10.57
2019-01-15T01:27:49.027Z,11.77
2019-01-15T01:30:21.954Z,21.33
2019-01-15T01:32:51.106Z,14.87
2019-01-15T01:35:20.313Z,14.50
2019-01-15T01:37:50.390Z,15.20
2019-01-15T01:40:19.766Z,18.17
2019-01-15T01:42:48.884Z,16.20
2019-01-15T01:45:17.971Z,15.87
2019-01-15T01:47:47.114Z,19.03
2019-01-15T01:50:16.218Z,15.07
2019-01-15T01:52:45.334Z,11.50
2019-01-15T01:55:14.810Z,11.80
2019-01-15T01:57:43.922Z,18.53
2019-01-15T02:00:17.523Z,15.20
2019-01-15T02:02:46.648Z,14.10
2019-01-15T02:05:15.742Z,11.27
2019-01-15T02:07:44.853Z,18.23
2019-01-15T02:10:15.905Z,12.23
2019-01-15T02:12:45.279Z,8.87
2019-01-15T02:15:19.132Z,10.60
2019-01-15T02:17:48.223Z,14.23
2019-01-15T02:20:18.980Z,16.27
2019-01-15T02:22:48.074Z,11.50
2019-01-15T02:25:17.188Z,13.13
2019-01-15T02:27:47.919Z,9.23
2019-01-15T02:30:19.634Z,15.87
2019-01-15T02:32:48.732Z,17.70
2019-01-15T02:35:17.841Z,16.60
2019-01-15T02:37:46.932Z,14.47
2019-01-15T02:40:16.117Z,9.87
2019-01-15T02:42:46.936Z,8.37
2019-01-15T02:45:19.492Z,13.40
2019-01-15T02:47:48.657Z,11.40
2019-01-15T02:50:20.793Z,16.07
2019-01-15T02:52:49.896Z,10.20
2019-01-15T02:55:19.014Z,12.73
2019-01-15T02:57:48.108Z,9.90
2019-01-15T03:00:24.502Z,11.70
2019-01-15T03:02:53.613Z,13.17
2019-01-15T03:05:22.751Z,13.87
2019-01-15T03:07:51.848Z,9.60
2019-01-15T03:10:21.800Z,12.13
2019-01-15T03:12:55.395Z,15.57
2019-01-15T03:15:22.690Z,12.33
2019-01-15T03:17:51.785Z,10.37
2019-01-15T03:20:20.890Z,10.60
2019-01-15T03:22:50.005Z,10.47
2019-01-15T03:25:20.180Z,16.40
2019-01-15T03:27:49.281Z,11.97
2019-01-15T03:30:20.401Z,10.43
2019-01-15T03:32:49.528Z,14.73
2019-01-15T03:35:19.609Z,14.63
2019-01-15T03:37:48.733Z,10.40
2019-01-15T03:40:19.856Z,10.33
2019-01-15T03:42:48.951Z,11.67
2019-01-15T03:45:18.079Z,10.90
2019-01-15T03:47:47.168Z,10.67
2019-01-15T03:50:16.291Z,16.53
2019-01-15T03:52:45.393Z,9.70
2019-01-15T03:55:15.054Z,9.43
2019-01-15T03:57:44.171Z,13.13
2019-01-15T04:00:16.022Z,15.33
2019-01-15T04:02:45.792Z,11.90
2019-01-15T04:05:16.859Z,15.07
2019-01-15T04:07:46.981Z,13.97
2019-01-15T04:10:16.075Z,8.80
2019-01-15T04:12:45.184Z,13.03
2019-01-15T04:15:14.299Z,14.83
2019-01-15T04:17:43.454Z,13.47
2019-01-15T04:20:14.524Z,13.17
2019-01-15T04:22:43.622Z,13.63
2019-01-15T04:25:13.498Z,9.40
2019-01-15T04:27:42.595Z,7.97
2019-01-15T04:30:14.472Z,11.23
2019-01-15T04:32:43.574Z,8.90
2019-01-15T04:35:12.681Z,11.63
2019-01-15T04:37:41.775Z,9.57
2019-01-15T04:40:18.622Z,13.63
2019-01-15T04:42:47.753Z,15.00
2019-01-15T04:45:18.673Z,12.67
2019-01-15T04:47:47.760Z,8.30
2019-01-15T04:50:16.885Z,7.03
2019-01-15T04:52:47.622Z,12.90
2019-01-15T04:55:16.789Z,13.63
2019-01-15T04:57:45.884Z,15.20
2019-01-15T05:00:19.210Z,14.63
2019-01-15T05:02:48.484Z,7.80
2019-01-15T05:05:17.591Z,19.70
2019-01-15T05:07:47.659Z,12.23
2019-01-15T05:10:17.034Z,13.07
2019-01-15T05:12:46.142Z,11.83
2019-01-15T05:15:16.328Z,18.37
2019-01-15T05:17:45.471Z,12.17
2019-01-15T05:20:18.862Z,12.87
2019-01-15T05:22:47.966Z,12.03
2019-01-15T05:25:21.374Z,24.03
2019-01-15T05:27:50.536Z,12.87
2019-01-15T05:30:24.156Z,10.60
2019-01-15T05:32:53.259Z,6.00
2019-01-15T05:35:22.349Z,8.57
2019-01-15T05:37:51.520Z,15.33
2019-01-15T05:40:20.648Z,12.13
2019-01-15T05:42:49.769Z,14.93
2019-01-15T05:45:24.517Z,12.23
2019-01-15T05:47:55.001Z,10.07
2019-01-15T05:50:25.752Z,12.33
2019-01-15T05:52:54.882Z,11.23
2019-01-15T05:55:23.994Z,13.73
2019-01-15T05:57:54.123Z,16.63
2019-01-15T06:00:24.183Z,9.27
2019-01-15T06:02:53.287Z,12.33
2019-01-15T06:05:22.379Z,10.43
2019-01-15T06:07:54.489Z,16.83
2019-01-15T06:10:23.584Z,13.60
2019-01-15T06:12:52.758Z,10.57
2019-01-15T06:15:21.929Z,12.97
2019-01-15T06:17:51.036Z,13.80
2019-01-15T06:20:23.335Z,9.33
2019-01-15T06:22:52.448Z,15.63
2019-01-15T06:25:21.615Z,10.63
2019-01-15T06:27:51.179Z,11.07
2019-01-15T06:30:21.780Z,9.20
2019-01-15T06:32:51.197Z,15.00
2019-01-15T06:35:20.302Z,14.17
2019-01-15T06:37:49.453Z,15.87
2019-01-15T06:40:19.920Z,14.93
2019-01-15T06:43:08.490Z,18.00
2019-01-15T06:45:37.602Z,18.40
2019-01-15T06:48:06.726Z,24.17
2019-01-15T06:50:36.112Z,18.57
2019-01-15T06:53:05.228Z,27.20
2019-01-15T06:55:34.326Z,21.67
2019-01-15T06:58:03.493Z,24.97
2019-01-15T07:00:32.595Z,21.37
2019-01-15T07:03:01.694Z,30.73
2019-01-15T07:05:30.803Z,27.43
2019-01-15T07:07:59.914Z,31.57
2019-01-15T07:10:34.831Z,25.77
2019-01-15T07:13:03.938Z,28.97
2019-01-15T07:15:33.044Z,27.80
2019-01-15T07:18:02.154Z,23.83
2019-01-15T07:20:31.271Z,26.37
2019-01-15T07:23:00.383Z,27.60
2019-01-15T07:25:29.926Z,30.67
2019-01-15T07:27:59.199Z,28.93
2019-01-15T07:30:34.493Z,30.80
2019-01-15T07:33:03.863Z,31.97
2019-01-15T07:35:32.987Z,29.57
2019-01-15T07:38:21.531Z,32.87
2019-01-15T07:40:50.629Z,33.00
2019-01-15T07:43:19.813Z,32.73
2019-01-15T07:45:48.910Z,29.40
2019-01-15T07:48:18.037Z,32.57
2019-01-15T07:50:47.152Z,35.93
2019-01-15T07:53:16.269Z,32.73
2019-01-15T07:55:45.391Z,32.17
2019-01-15T07:58:14.568Z,38.43
2019-01-15T08:00:43.675Z,37.07
2019-01-15T08:03:12.778Z,40.23
2019-01-15T08:05:41.960Z,31.93
2019-01-15T08:08:11.081Z,34.33
2019-01-15T08:10:41.681Z,36.17
2019-01-15T08:13:11.942Z,41.50
2019-01-15T08:15:41.071Z,40.33
2019-01-15T08:18:10.185Z,41.10
2019-01-15T08:20:39.289Z,40.90
2019-01-15T08:23:08.408Z,35.70
2019-01-15T08:25:37.507Z,31.40
2019-01-15T08:28:06.634Z,37.70
2019-01-15T08:30:36.982Z,39.20
2019-01-15T08:33:06.155Z,35.70
2019-01-15T08:35:35.263Z,40.50
2019-01-15T08:38:05.436Z,37.13
2019-01-15T08:40:34.544Z,42.37
2019-01-15T08:43:03.790Z,48.70
2019-01-15T08:45:32.898Z,39.00
2019-01-15T08:48:03.642Z,39.77
2019-01-15T08:50:33.218Z,44.63
2019-01-15T08:53:02.338Z,45.93
2019-01-15T08:55:31.438Z,41.77
2019-01-15T08:58:00.547Z,47.33
2019-01-15T09:00:29.698Z,42.70
2019-01-15T09:02:58.775Z,51.07
2019-01-15T09:05:27.883Z,46.67
2019-01-15T09:07:57.009Z,43.93
2019-01-15T09:10:26.122Z,47.60
2019-01-15T09:12:55.218Z,50.80
2019-01-15T09:15:24.332Z,50.40
2019-01-15T09:17:53.575Z,49.13
2019-01-15T09:20:22.877Z,53.50
2019-01-15T09:22:52.056Z,52.80
2019-01-15T09:25:21.186Z,54.63
2019-01-15T09:27:50.298Z,56.10
2019-01-15T09:30:21.456Z,51.50
2019-01-15T09:32:51.288Z,51.17
2019-01-15T09:35:20.418Z,51.50
2019-01-15T09:37:50.207Z,55.63
2019-01-15T09:40:21.156Z,50.20
2019-01-15T09:42:50.258Z,49.47
2019-01-15T09:45:21.110Z,51.77
2019-01-15T09:48:06.958Z,50.67
2019-01-15T09:50:36.083Z,47.10
2019-01-15T09:53:05.358Z,60.73
2019-01-15T09:55:35.464Z,57.30
2019-01-15T09:58:04.918Z,58.77
2019-01-15T10:00:34.037Z,53.73
2019-01-15T10:03:03.127Z,54.90
2019-01-15T10:05:32.237Z,57.20
2019-01-15T10:08:01.339Z,53.47
2019-01-15T10:10:30.442Z,53.03
2019-01-15T10:12:59.558Z,59.90
2019-01-15T10:15:28.675Z,49.13
2019-01-15T10:17:57.845Z,46.03
2019-01-15T10:20:27.049Z,54.83
2019-01-15T10:22:56.150Z,56.20
2019-01-15T10:25:26.535Z,50.63
2019-01-15T10:27:55.702Z,52.90
2019-01-15T10:30:32.389Z,55.20
2019-01-15T10:33:07.722Z,51.03
2019-01-15T10:35:54.811Z,44.97
2019-01-15T10:38:25.756Z,51.57
2019-01-15T10:40:56.760Z,45.97
2019-01-15T10:43:26.512Z,52.30
2019-01-15T10:45:56.682Z,44.30
2019-01-15T10:48:25.783Z,46.67
2019-01-15T10:50:54.895Z,45.13
2019-01-15T10:53:23.995Z,48.40
2019-01-15T10:55:53.114Z,49.10
2019-01-15T10:58:22.214Z,41.03
2019-01-15T11:00:51.335Z,46.43
2019-01-15T11:03:20.443Z,51.03
2019-01-15T11:05:49.574Z,41.87
2019-01-15T11:08:18.680Z,55.53
2019-01-15T11:10:47.806Z,51.50
2019-01-15T11:13:16.986Z,57.87
2019-01-15T11:15:46.086Z,52.10
2019-01-15T11:18:15.201Z,50.50
2019-01-15T11:20:44.303Z,55.73
2019-01-15T11:23:13.410Z,52.33
2019-01-15T11:25:42.514Z,43.23
2019-01-15T11:28:11.626Z,49.97
2019-01-15T11:30:40.731Z,48.77
2019-01-15T11:33:09.916Z,48.53
2019-01-15T11:35:39.018Z,43.20
2019-01-15T11:38:08.230Z,46.37
2019-01-15T11:40:37.352Z,45.03
2019-01-15T11:43:06.793Z,44.43
2019-01-15T11:45:36.968Z,46.60
2019-01-15T11:48:06.098Z,46.13
2019-01-15T11:50:35.191Z,43.13
2019-01-15T11:53:04.765Z,44.60
2019-01-15T11:55:33.864Z,41.07
2019-01-15T11:58:02.992Z,37.30
2019-01-15T12:00:33.732Z,36.00
2019-01-15T12:03:04.489Z,38.40
2019-01-15T12:05:35.224Z,38.50
2019-01-15T12:08:06.016Z,37.43
2019-01-15T12:10:53.189Z,43.93
2019-01-15T12:13:29.698Z,34.20
2019-01-15T12:16:06.190Z,38.03
2019-01-15T12:18:49.033Z,34.27
2019-01-15T12:21:37.671Z,35.10
2019-01-15T12:24:20.422Z,39.10
2019-01-15T12:26:53.802Z,36.67
2019-01-15T12:29:33.476Z,30.20
2019-01-15T12:32:07.305Z,39.70
2019-01-15T12:34:43.916Z,33.43
2019-01-15T12:37:23.859Z,32.17
2019-01-15T12:40:09.985Z,29.37
2019-01-15T12:42:40.776Z,29.77
2019-01-15T12:45:23.941Z,33.60
2019-01-15T12:47:57.429Z,31.63
2019-01-15T12:50:46.508Z,28.87
2019-01-15T12:53:26.030Z,27.10
2019-01-15T12:55:56.782Z,29.27
2019-01-15T12:58:33.300Z,25.20
2019-01-15T13:04:13.137Z,28.30
2019-01-15T13:06:55.844Z,32.30
2019-01-15T13:09:38.560Z,25.47
2019-01-15T13:12:15.251Z,22.90
2019-01-15T13:15:04.281Z,26.23
2019-01-15T13:17:51.810Z,22.67
2019-01-15T13:20:25.261Z,25.13
2019-01-15T13:22:58.746Z,29.07
2019-01-15T13:25:42.664Z,22.17
2019-01-15T13:28:19.143Z,28.50
2019-01-15T13:30:59.154Z,26.70
2019-01-15T13:33:36.672Z,21.23
2019-01-15T13:36:57.767Z,25.37
2019-01-15T13:39:08.318Z,24.23
2019-01-15T13:41:41.926Z,22.90
2019-01-15T13:44:32.013Z,24.50
2019-01-15T13:47:22.412Z,27.90
2019-01-15T13:50:01.096Z,24.17
2019-01-15T13:52:35.009Z,25.70
2019-01-15T13:55:12.809Z,22.60
2019-01-15T13:57:50.679Z,24.03
2019-01-15T14:00:33.470Z,26.87
2019-01-15T14:03:13.195Z,21.50
2019-01-15T14:05:49.649Z,29.60
2019-01-15T14:08:41.282Z,20.97
2019-01-15T14:11:21.162Z,28.57
2019-01-15T14:13:58.083Z,24.87
2019-01-15T14:16:45.094Z,29.73
2019-01-15T14:19:18.784Z,26.30
2019-01-15T14:22:02.994Z,26.70
2019-01-15T14:24:42.700Z,23.30
2019-01-15T14:27:13.593Z,20.93
2019-01-15T14:29:46.335Z,25.50
2019-01-15T14:32:39.004Z,26.20
2019-01-15T14:35:09.790Z,26.13
2019-01-15T14:37:49.412Z,26.60
2019-01-15T14:40:31.801Z,22.30
2019-01-15T14:43:23.709Z,27.00
2019-01-15T14:46:03.236Z,26.27
2019-01-15T14:48:37.082Z,27.77
2019-01-15T14:51:09.314Z,26.60
2019-01-15T14:53:43.024Z,32.03
2019-01-15T14:56:25.980Z,22.90
2019-01-15T14:59:12.313Z,27.90
2019-01-15T15:01:54.815Z,22.93
2019-01-15T15:04:39.886Z,29.00
2019-01-15T15:07:17.704Z,29.03
2019-01-15T15:09:49.463Z,28.33
2019-01-15T15:12:20.316Z,25.17
2019-01-15T15:14:58.958Z,23.80
2019-01-15T15:17:48.487Z,24.10
2019-01-15T15:20:22.346Z,25.90
2019-01-15T15:23:09.729Z,24.10
2019-01-15T15:25:55.613Z,22.93
2019-01-15T15:28:35.435Z,24.60
2019-01-15T15:31:18.236Z,28.63
2019-01-15T15:34:00.855Z,23.50
2019-01-15T15:36:46.594Z,20.60
2019-01-15T15:39:20.027Z,25.83
2019-01-15T15:42:09.121Z,22.47
2019-01-15T15:44:56.237Z,25.20
2019-01-15T15:47:32.825Z,20.57
2019-01-15T15:50:09.291Z,27.10
2019-01-15T15:52:51.826Z,25.37
2019-01-15T15:55:28.280Z,24.43
2019-01-15T15:58:01.947Z,19.50
2019-01-15T16:00:38.471Z,25.50
2019-01-15T16:03:11.966Z,24.33
2019-01-15T16:05:54.897Z,21.23
2019-01-15T16:08:42.051Z,18.77
2019-01-15T16:11:30.539Z,22.93
2019-01-15T16:14:03.966Z,25.73
2019-01-15T16:16:51.091Z,23.83
2019-01-15T16:19:21.922Z,24.70
2019-01-15T16:22:04.988Z,25.20
2019-01-15T16:24:42.800Z,25.27
2019-01-15T16:27:19.732Z,22.97
2019-01-15T16:29:53.336Z,21.33
2019-01-15T16:32:24.091Z,25.90
2019-01-15T16:35:10.985Z,24.97
2019-01-15T16:37:50.791Z,23.03
2019-01-15T16:40:24.510Z,26.53
2019-01-15T16:42:55.255Z,29.47
2019-01-15T16:45:38.286Z,19.40
2019-01-15T16:48:25.341Z,24.43
2019-01-15T16:50:58.904Z,25.40
2019-01-15T16:53:30.813Z,22.03
2019-01-15T16:56:04.647Z,25.03
2019-01-15T16:58:41.119Z,25.97
2019-01-15T17:01:12.021Z,25.30
2019-01-15T17:03:57.870Z,24.67
2019-01-15T17:06:50.036Z,24.23
2019-01-15T17:09:27.251Z,25.53
2019-01-15T17:12:25.856Z,27.77
2019-01-15T17:15:14.368Z,27.70
2019-01-15T17:17:45.117Z,29.30
2019-01-15T17:20:24.548Z,26.73
2019-01-15T17:23:05.789Z,30.90
2019-01-15T17:25:48.347Z,25.37
2019-01-15T17:28:35.483Z,23.43
2019-01-15T17:31:07.850Z,26.70
2019-01-15T17:33:43.585Z,26.50
2019-01-15T17:36:26.186Z,27.27
2019-01-15T17:39:03.633Z,24.43
2019-01-15T17:41:44.944Z,26.27
2019-01-15T17:44:32.010Z,26.40
2019-01-15T17:47:08.717Z,29.37
2019-01-15T17:49:56.031Z,26.60
2019-01-15T17:52:43.799Z,28.80
2019-01-15T17:55:21.039Z,28.67
2019-01-15T17:58:08.423Z,30.93
2019-01-15T18:00:55.988Z,31.47
2019-01-15T18:03:53.157Z,29.67
2019-01-15T18:09:11.322Z,28.70
2019-01-15T18:11:55.013Z,28.93
2019-01-15T18:14:45.187Z,28.17
2019-01-15T18:17:32.989Z,30.47
2019-01-15T18:19:57.071Z,32.47
2019-01-15T18:22:29.061Z,32.33
2019-01-15T18:25:03.525Z,35.77
2019-01-15T18:27:42.198Z,29.53
2019-01-15T18:30:13.429Z,31.93
2019-01-15T18:32:47.311Z,35.37
2019-01-15T18:35:23.927Z,38.60
2019-01-15T18:38:04.550Z,30.13
2019-01-15T18:40:38.447Z,33.67
2019-01-15T18:43:15.489Z,39.13
2019-01-15T18:45:46.247Z,30.37
2019-01-15T18:48:19.903Z,37.77
2019-01-15T18:51:02.661Z,34.27
2019-01-15T18:53:45.497Z,34.53
2019-01-15T18:56:28.504Z,39.60
2019-01-15T18:59:15.509Z,38.93
2019-01-15T19:01:46.255Z,40.97
2019-01-15T19:04:26.131Z,50.67
2019-01-15T19:06:57.848Z,43.17
2019-01-15T19:09:44.991Z,36.53
2019-01-15T19:12:18.694Z,30.73
2019-01-15T19:14:59.927Z,36.20
2019-01-15T19:17:39.582Z,32.47
2019-01-15T19:20:14.827Z,36.87
2019-01-15T19:22:48.413Z,30.67
2019-01-15T19:25:26.917Z,32.40
2019-01-15T19:28:09.696Z,34.00
2019-01-15T19:30:58.509Z,33.60
2019-01-15T19:33:47.634Z,35.00
2019-01-15T19:36:27.320Z,34.97
2019-01-15T19:39:00.922Z,38.43
2019-01-15T19:41:41.206Z,37.83
2019-01-15T19:44:28.460Z,38.70
2019-01-15T19:47:02.227Z,35.20
2019-01-15T19:49:42.175Z,36.83
2019-01-15T19:52:12.935Z,33.60
2019-01-15T19:54:52.880Z,36.27
2019-01-15T19:57:35.899Z,33.47
2019-01-15T20:00:18.835Z,38.77
2019-01-15T20:03:06.002Z,34.20
2019-01-15T20:05:36.794Z,36.50
2019-01-15T20:08:22.847Z,37.83
2019-01-15T20:10:53.603Z,39.43
2019-01-15T20:13:30.107Z,38.33
2019-01-15T20:16:00.880Z,34.67
2019-01-15T20:18:37.595Z,42.33
2019-01-15T20:21:14.425Z,32.50
2019-01-15T20:23:45.173Z,37.37
2019-01-15T20:26:22.082Z,37.93
2019-01-15T20:29:02.043Z,33.00
2019-01-15T20:31:32.811Z,37.37
2019-01-15T20:34:09.679Z,36.13
2019-01-15T20:36:52.347Z,42.80
2019-01-15T20:39:23.082Z,36.83
2019-01-15T20:41:56.696Z,35.33
2019-01-15T20:44:33.358Z,34.60
2019-01-15T20:47:06.767Z,41.13
2019-01-15T20:49:55.463Z,39.60
2019-01-15T20:52:45.526Z,36.87
2019-01-15T20:55:25.056Z,35.43
2019-01-15T20:57:59.646Z,37.43
2019-01-15T21:00:30.380Z,39.27
2019-01-15T21:03:04.012Z,36.57
2019-01-15T21:05:34.748Z,39.60
2019-01-15T21:08:14.298Z,38.27
2019-01-15T21:11:01.583Z,41.57
2019-01-15T21:13:50.617Z,41.07
2019-01-15T21:16:21.359Z,42.10
2019-01-15T21:18:58.313Z,45.37
2019-01-15T21:21:45.482Z,38.87
2019-01-15T21:24:31.541Z,45.27
2019-01-15T21:27:10.747Z,42.33
2019-01-15T21:29:41.493Z,45.27
2019-01-15T21:32:19.002Z,48.13
2019-01-15T21:34:52.682Z,43.57
2019-01-15T21:37:26.491Z,43.47
2019-01-15T21:40:03.433Z,41.07
2019-01-15T21:42:43.411Z,42.90
2019-01-15T21:45:30.653Z,42.13
2019-01-15T21:48:19.904Z,44.27
2019-01-15T21:50:59.875Z,40.43
2019-01-15T21:53:47.068Z,39.43
2019-01-15T21:56:17.808Z,36.60
2019-01-15T21:58:48.557Z,39.70
2019-01-15T22:01:35.988Z,39.10
2019-01-15T22:04:26.018Z,42.67
2019-01-15T22:07:05.643Z,37.03
2019-01-15T22:09:36.415Z,40.80
2019-01-15T22:12:15.892Z,44.60
2019-01-15T22:14:52.584Z,49.23
2019-01-15T22:17:26.964Z,44.13
2019-01-15T22:20:00.477Z,49.93
2019-01-15T22:22:49.076Z,53.93
2019-01-15T22:25:34.603Z,49.30
2019-01-15T22:28:22.763Z,46.33
2019-01-15T22:30:53.599Z,58.37
2019-01-15T22:33:25.346Z,53.97
2019-01-15T22:36:11.398Z,54.77
2019-01-15T22:38:45.120Z,57.00
2019-01-15T22:41:18.531Z,54.37
2019-01-15T22:44:01.108Z,56.43
2019-01-15T22:46:46.772Z,55.73
2019-01-15T22:49:32.448Z,54.30
2019-01-15T22:52:09.056Z,52.97
2019-01-15T22:55:08.424Z,49.17
2019-01-15T22:57:39.171Z,47.80
2019-01-15T23:00:16.126Z,47.23
2019-01-15T23:02:49.273Z,45.37
2019-01-15T23:08:41.811Z,44.60
2019-01-15T23:11:21.316Z,42.53
2019-01-15T23:13:54.769Z,41.30
2019-01-15T23:16:34.224Z,43.73
2019-01-15T23:19:07.973Z,39.53
2019-01-15T23:21:56.891Z,46.30
2019-01-15T23:24:42.761Z,41.40
2019-01-15T23:27:13.496Z,39.10
2019-01-15T23:29:44.265Z,39.17
2019-01-15T23:32:15.043Z,38.67
2019-01-15T23:34:49.482Z,47.23
2019-01-15T23:37:22.918Z,42.33
2019-01-15T23:40:02.544Z,42.43
2019-01-15T23:42:39.347Z,42.33
2019-01-15T23:45:26.626Z,37.50
2019-01-15T23:48:09.467Z,42.63
2019-01-15T23:50:51.948Z,38.57
2019-01-15T23:53:34.748Z,40.23
2019-01-15T23:56:21.751Z,38.17
2019-01-15T23:58:58.479Z,39.43
